createdAt,value
2022-08-12T00:00:31.003Z,36.07
2022-08-12T00:02:02.965Z,36.17
2022-08-12T00:02:32.627Z,36.17
2022-08-12T00:03:31.966Z,36.17
2022-08-12T00:04:32.186Z,36.27
2022-08-12T00:05:32.455Z,36.27
2022-08-12T00:06:32.813Z,36.36
2022-08-12T00:07:33.161Z,36.36
2022-08-12T00:08:37.031Z,36.47
2022-08-12T00:09:33.657Z,36.57
2022-08-12T00:10:34.024Z,36.58
2022-08-12T00:11:34.189Z,36.58
2022-08-12T00:12:34.591Z,36.58
2022-08-12T00:13:34.798Z,36.57
2022-08-12T00:14:35.051Z,36.66
2022-08-12T00:15:35.391Z,36.66
2022-08-12T00:16:35.600Z,36.66
2022-08-12T00:17:35.903Z,36.68
2022-08-12T00:18:36.270Z,36.58
2022-08-12T00:19:36.471Z,36.68
2022-08-12T00:20:36.766Z,36.88
2022-08-12T00:21:37.047Z,36.98
2022-08-12T00:22:37.381Z,36.88
2022-08-12T00:23:37.739Z,37.00
2022-08-12T00:24:38.008Z,37.00
2022-08-12T00:26:01.431Z,37.10
2022-08-12T00:26:39.579Z,37.00
2022-08-12T00:27:43.802Z,36.90
2022-08-12T00:28:40.163Z,36.90
2022-08-12T00:29:39.442Z,37.10
2022-08-12T00:30:39.771Z,36.90
2022-08-12T00:31:40.055Z,37.10
2022-08-12T00:32:40.388Z,36.90
2022-08-12T00:33:51.496Z,36.90
2022-08-12T00:34:42.011Z,37.00
2022-08-12T00:35:41.342Z,37.10
2022-08-12T00:36:41.561Z,37.10
2022-08-12T00:37:41.790Z,37.10
2022-08-12T00:38:42.034Z,37.10
2022-08-12T00:39:42.493Z,36.90
2022-08-12T00:40:42.676Z,37.00
2022-08-12T00:41:42.954Z,36.90
2022-08-12T00:42:43.409Z,37.00
2022-08-12T00:43:43.496Z,37.00
2022-08-12T00:44:43.779Z,37.00
2022-08-12T00:45:44.061Z,37.00
2022-08-12T00:46:44.348Z,37.00
2022-08-12T00:47:44.635Z,37.00
2022-08-12T00:48:44.961Z,37.10
2022-08-12T00:49:45.327Z,37.10
2022-08-12T00:50:46.491Z,37.10
2022-08-12T00:51:45.777Z,37.00
2022-08-12T00:52:46.110Z,37.00
2022-08-12T00:53:46.368Z,37.00
2022-08-12T00:54:46.647Z,37.20
2022-08-12T00:55:46.977Z,37.20
2022-08-12T00:56:47.258Z,37.30
2022-08-12T00:57:47.582Z,37.41
2022-08-12T00:58:47.850Z,37.51
2022-08-12T00:59:48.110Z,37.71
2022-08-12T01:00:48.424Z,37.71
2022-08-12T01:02:11.391Z,37.81
2022-08-12T01:02:50.010Z,37.92
2022-08-12T01:03:49.319Z,38.11
2022-08-12T01:04:49.604Z,38.11
2022-08-12T01:05:49.907Z,38.11
2022-08-12T01:06:50.895Z,38.23
2022-08-12T01:07:50.510Z,38.33
2022-08-12T01:08:50.846Z,38.31
2022-08-12T01:09:51.112Z,38.31
2022-08-12T01:10:51.460Z,38.31
2022-08-12T01:11:51.722Z,38.33
2022-08-12T01:12:52.047Z,38.31
2022-08-12T01:13:52.322Z,38.31
2022-08-12T01:14:52.601Z,38.31
2022-08-12T01:15:52.888Z,38.31
2022-08-12T01:16:53.120Z,38.43
2022-08-12T01:17:53.443Z,38.43
2022-08-12T01:18:53.789Z,38.31
2022-08-12T01:19:54.141Z,38.21
2022-08-12T01:20:54.401Z,38.21
2022-08-12T01:21:54.735Z,38.11
2022-08-12T01:22:55.015Z,38.11
2022-08-12T01:23:55.293Z,38.11
2022-08-12T01:24:55.633Z,38.01
2022-08-12T01:25:56.613Z,38.11
2022-08-12T01:26:56.229Z,38.09
2022-08-12T01:27:56.459Z,37.99
2022-08-12T01:28:57.063Z,37.90
2022-08-12T01:29:57.102Z,37.99
2022-08-12T01:30:57.429Z,37.90
2022-08-12T01:31:57.760Z,37.90
2022-08-12T01:32:58.005Z,37.99
2022-08-12T01:33:58.339Z,37.99
2022-08-12T01:34:58.609Z,37.90
2022-08-12T01:36:08.644Z,37.90
2022-08-12T01:37:00.177Z,37.90
2022-08-12T01:37:59.463Z,37.99
2022-08-12T01:38:59.760Z,37.99
2022-08-12T01:40:33.360Z,38.09
2022-08-12T01:41:01.403Z,38.09
2022-08-12T01:42:00.585Z,38.09
2022-08-12T01:43:00.845Z,38.09
2022-08-12T01:44:01.165Z,38.20
2022-08-12T01:45:01.460Z,38.20
2022-08-12T01:46:01.775Z,38.20
2022-08-12T01:47:02.065Z,38.09
2022-08-12T01:48:03.865Z,38.20
2022-08-12T01:49:02.632Z,38.09
2022-08-12T01:50:02.974Z,38.20
2022-08-12T01:51:05.579Z,38.09
2022-08-12T01:52:15.841Z,38.09
2022-08-12T01:53:04.884Z,38.09
2022-08-12T01:54:04.176Z,37.99
2022-08-12T01:55:04.429Z,38.20
2022-08-12T01:56:04.701Z,38.09
2022-08-12T01:57:04.995Z,38.09
2022-08-12T01:58:05.260Z,38.09
2022-08-12T01:59:05.619Z,38.09
2022-08-12T02:00:06.906Z,38.09
2022-08-12T02:01:06.285Z,38.09
2022-08-12T02:02:06.420Z,38.09
2022-08-12T02:03:06.729Z,38.20
2022-08-12T02:04:07.066Z,38.09
2022-08-12T02:05:07.323Z,38.09
2022-08-12T02:06:07.634Z,38.09
2022-08-12T02:07:07.976Z,38.09
2022-08-12T02:08:08.112Z,37.99
2022-08-12T02:09:08.433Z,38.09
2022-08-12T02:10:08.739Z,38.21
2022-08-12T02:11:08.972Z,38.31
2022-08-12T02:12:09.229Z,38.31
2022-08-12T02:13:09.574Z,38.51
2022-08-12T02:14:09.841Z,38.51
2022-08-12T02:15:10.097Z,38.41
2022-08-12T02:16:10.393Z,38.41
2022-08-12T02:17:10.661Z,38.31
2022-08-12T02:18:10.932Z,38.31
2022-08-12T02:19:13.683Z,38.21
2022-08-12T02:20:12.544Z,38.09
2022-08-12T02:21:11.791Z,38.09
2022-08-12T02:22:12.050Z,38.09
2022-08-12T02:23:12.354Z,38.09
2022-08-12T02:24:12.737Z,37.99
2022-08-12T02:25:13.001Z,37.90
2022-08-12T02:26:13.264Z,37.90
2022-08-12T02:27:13.529Z,37.90
2022-08-12T02:28:13.836Z,37.90
2022-08-12T02:29:14.142Z,37.90
2022-08-12T02:30:15.257Z,37.90
2022-08-12T02:31:14.772Z,37.90
2022-08-12T02:32:15.057Z,37.90
2022-08-12T02:33:15.308Z,37.79
2022-08-12T02:34:15.600Z,37.90
2022-08-12T02:35:15.934Z,37.90
2022-08-12T02:36:16.211Z,37.90
2022-08-12T02:37:16.434Z,37.90
2022-08-12T02:38:16.736Z,37.90
2022-08-12T02:39:17.087Z,37.90
2022-08-12T02:40:17.356Z,37.88
2022-08-12T02:41:17.704Z,37.99
2022-08-12T02:42:17.847Z,37.99
2022-08-12T02:43:18.236Z,37.98
2022-08-12T02:44:18.502Z,37.90
2022-08-12T02:45:18.846Z,37.99
2022-08-12T02:46:19.081Z,38.20
2022-08-12T02:48:00.004Z,38.21
2022-08-12T02:48:20.737Z,38.31
2022-08-12T02:49:20.042Z,38.41
2022-08-12T02:50:20.335Z,38.41
2022-08-12T02:51:20.730Z,38.41
2022-08-12T02:52:20.905Z,38.39
2022-08-12T02:53:21.184Z,38.39
2022-08-12T02:54:21.534Z,38.20
2022-08-12T02:55:34.648Z,38.20
2022-08-12T02:56:22.938Z,38.09
2022-08-12T02:57:22.169Z,38.20
2022-08-12T02:58:32.919Z,38.20
2022-08-12T02:59:23.769Z,38.20
2022-08-12T03:00:23.046Z,38.20
2022-08-12T03:01:23.494Z,38.29
2022-08-12T03:02:23.688Z,38.29
2022-08-12T03:03:24.383Z,38.20
2022-08-12T03:04:24.216Z,38.20
2022-08-12T03:05:25.058Z,38.20
2022-08-12T03:06:24.825Z,38.49
2022-08-12T03:07:34.498Z,38.69
2022-08-12T03:08:32.531Z,38.69
2022-08-12T03:09:35.851Z,38.49
2022-08-12T03:10:37.326Z,38.59
2022-08-12T03:11:27.375Z,38.69
2022-08-12T03:12:26.697Z,38.69
2022-08-12T03:13:28.011Z,38.79
2022-08-12T03:14:27.262Z,39.09
2022-08-12T03:15:27.562Z,38.89
2022-08-12T03:16:27.803Z,39.11
2022-08-12T03:17:28.122Z,39.61
2022-08-12T03:18:28.853Z,40.00
2022-08-12T03:19:28.711Z,40.50
2022-08-12T03:20:29.003Z,41.79
2022-08-12T03:21:57.855Z,44.58
2022-08-12T03:22:30.661Z,46.30
2022-08-12T03:23:31.205Z,47.59
2022-08-12T03:24:30.069Z,49.18
2022-08-12T03:25:30.346Z,49.28
2022-08-12T03:26:30.672Z,49.40
2022-08-12T03:27:30.954Z,50.20
2022-08-12T03:28:31.229Z,50.40
2022-08-12T03:29:31.527Z,49.60
2022-08-12T03:30:32.776Z,48.71
2022-08-12T03:31:32.064Z,47.14
2022-08-12T03:32:35.799Z,47.61
2022-08-12T03:33:32.648Z,45.64
2022-08-12T03:34:33.033Z,45.74
2022-08-12T03:35:40.772Z,45.74
2022-08-12T03:36:34.449Z,45.54
2022-08-12T03:37:33.657Z,45.04
2022-08-12T03:38:33.858Z,45.44
2022-08-12T03:39:35.820Z,45.14
2022-08-12T03:40:34.476Z,45.14
2022-08-12T03:41:34.895Z,45.24
2022-08-12T03:42:35.261Z,45.26
2022-08-12T03:43:35.442Z,45.06
2022-08-12T03:44:35.722Z,45.06
2022-08-12T03:45:46.384Z,44.96
2022-08-12T03:46:37.282Z,45.06
2022-08-12T03:47:36.634Z,45.17
2022-08-12T03:48:36.875Z,45.96
2022-08-12T03:49:37.119Z,46.86
2022-08-12T03:50:37.428Z,47.75
2022-08-12T03:51:37.654Z,48.95
2022-08-12T03:52:38.011Z,47.56
2022-08-12T03:53:38.317Z,48.16
2022-08-12T03:54:42.520Z,47.56
2022-08-12T03:55:38.941Z,47.28
2022-08-12T03:56:39.279Z,47.18
2022-08-12T03:57:39.598Z,47.18
2022-08-12T03:58:39.832Z,47.18
2022-08-12T03:59:40.206Z,46.88
2022-08-12T04:00:40.516Z,47.08
2022-08-12T04:01:41.192Z,46.78
2022-08-12T04:02:41.090Z,46.78
2022-08-12T04:03:41.229Z,47.18
2022-08-12T04:04:41.482Z,47.10
2022-08-12T04:05:55.761Z,46.98
2022-08-12T04:06:42.935Z,47.18
2022-08-12T04:07:55.077Z,47.28
2022-08-12T04:08:43.419Z,47.20
2022-08-12T04:09:42.797Z,47.40
2022-08-12T04:10:43.070Z,47.50
2022-08-12T04:11:46.941Z,47.80
2022-08-12T04:12:43.693Z,48.20
2022-08-12T04:13:43.824Z,48.20
2022-08-12T04:14:44.069Z,48.30
2022-08-12T04:15:44.326Z,48.30
2022-08-12T04:16:44.601Z,48.50
2022-08-12T04:18:07.414Z,48.72
2022-08-12T04:18:46.090Z,48.82
2022-08-12T04:19:45.481Z,48.82
2022-08-12T04:20:45.726Z,48.93
2022-08-12T04:22:01.765Z,49.02
2022-08-12T04:22:47.235Z,49.02
2022-08-12T04:23:48.637Z,49.12
2022-08-12T04:24:50.457Z,49.42
2022-08-12T04:25:46.988Z,49.52
2022-08-12T04:26:47.203Z,49.32
2022-08-12T04:27:47.523Z,49.22
2022-08-12T04:28:47.762Z,49.32
2022-08-12T04:30:29.338Z,49.42
2022-08-12T04:30:49.257Z,49.52
2022-08-12T04:31:48.500Z,49.42
2022-08-12T04:32:49.016Z,49.42
2022-08-12T04:33:48.980Z,49.52
2022-08-12T04:34:49.250Z,49.72
2022-08-12T04:35:49.573Z,49.92
2022-08-12T04:36:49.784Z,50.02
2022-08-12T04:37:59.455Z,49.92
2022-08-12T04:38:51.323Z,49.72
2022-08-12T04:39:50.583Z,49.52
2022-08-12T04:40:50.873Z,49.52
2022-08-12T04:41:58.428Z,49.42
2022-08-12T04:42:52.430Z,49.44
2022-08-12T04:43:59.769Z,49.42
2022-08-12T04:44:52.905Z,49.52
2022-08-12T04:45:52.176Z,50.24
2022-08-12T04:46:52.534Z,50.35
2022-08-12T04:47:52.728Z,50.35
2022-08-12T04:48:52.929Z,50.24
2022-08-12T04:49:53.148Z,50.54
2022-08-12T04:50:53.421Z,50.02
2022-08-12T04:51:59.192Z,50.04
2022-08-12T04:52:55.105Z,50.35
2022-08-12T04:53:54.145Z,50.04
2022-08-12T04:54:54.475Z,50.15
2022-08-12T04:55:54.830Z,49.95
2022-08-12T04:57:03.971Z,49.74
2022-08-12T04:57:56.272Z,49.95
2022-08-12T04:58:55.565Z,49.95
2022-08-12T04:59:55.778Z,50.04
2022-08-12T05:00:56.064Z,50.04
2022-08-12T05:01:56.360Z,50.04
2022-08-12T05:02:56.558Z,50.24
2022-08-12T05:03:56.801Z,50.35
2022-08-12T05:05:00.692Z,50.35
2022-08-12T05:05:57.445Z,50.74
2022-08-12T05:06:57.676Z,50.65
2022-08-12T05:07:57.936Z,50.35
2022-08-12T05:08:58.208Z,50.24
2022-08-12T05:09:59.374Z,50.54
2022-08-12T05:10:58.669Z,50.65
2022-08-12T05:11:59.056Z,50.35
2022-08-12T05:12:59.333Z,50.47
2022-08-12T05:13:59.578Z,50.37
2022-08-12T05:14:59.835Z,49.65
2022-08-12T05:16:03.899Z,49.44
2022-08-12T05:17:01.320Z,49.35
2022-08-12T05:18:07.476Z,48.55
2022-08-12T05:19:01.919Z,48.65
2022-08-12T05:20:01.192Z,47.65
2022-08-12T05:21:01.428Z,47.65
2022-08-12T05:22:01.643Z,47.45
2022-08-12T05:23:10.039Z,47.35
2022-08-12T05:24:03.260Z,47.35
2022-08-12T05:25:02.509Z,47.35
2022-08-12T05:26:02.810Z,47.22
2022-08-12T05:27:02.987Z,47.22
2022-08-12T05:28:03.339Z,47.33
2022-08-12T05:29:05.973Z,47.42
2022-08-12T05:30:08.102Z,47.42
2022-08-12T05:31:04.094Z,47.22
2022-08-12T05:32:04.332Z,47.22
2022-08-12T05:33:04.551Z,47.33
2022-08-12T05:34:04.801Z,47.42
2022-08-12T05:35:05.058Z,47.42
2022-08-12T05:36:05.290Z,47.42
2022-08-12T05:37:05.590Z,47.33
2022-08-12T05:38:05.845Z,47.33
2022-08-12T05:39:06.127Z,47.13
2022-08-12T05:40:10.878Z,47.13
2022-08-12T05:41:07.699Z,47.33
2022-08-12T05:42:07.872Z,47.22
2022-08-12T05:43:07.259Z,47.22
2022-08-12T05:44:07.470Z,47.22
2022-08-12T05:45:07.872Z,47.22
2022-08-12T05:46:08.075Z,47.22
2022-08-12T05:47:08.433Z,47.22
2022-08-12T05:48:08.668Z,47.13
2022-08-12T05:49:08.919Z,47.22
2022-08-12T05:50:09.218Z,47.22
2022-08-12T05:51:09.511Z,47.33
2022-08-12T05:52:09.768Z,47.22
2022-08-12T05:53:10.013Z,47.03
2022-08-12T05:54:10.338Z,46.92
2022-08-12T05:55:11.658Z,47.03
2022-08-12T05:56:10.914Z,47.10
2022-08-12T05:57:11.212Z,47.30
2022-08-12T05:58:11.434Z,47.40
2022-08-12T05:59:11.730Z,47.30
2022-08-12T06:00:11.959Z,46.70
2022-08-12T06:02:10.551Z,46.80
2022-08-12T06:02:13.862Z,46.70
2022-08-12T06:03:12.763Z,46.70
2022-08-12T06:04:13.013Z,46.70
2022-08-12T06:05:13.212Z,46.68
2022-08-12T06:06:13.449Z,46.68
2022-08-12T06:07:37.377Z,46.48
2022-08-12T06:08:14.988Z,46.58
2022-08-12T06:09:14.370Z,46.68
2022-08-12T06:10:14.545Z,46.58
2022-08-12T06:11:14.801Z,46.48
2022-08-12T06:12:15.113Z,46.48
2022-08-12T06:13:27.859Z,46.28
2022-08-12T06:14:16.674Z,46.08
2022-08-12T06:15:15.860Z,46.08
2022-08-12T06:16:16.108Z,45.86
2022-08-12T06:17:16.364Z,45.76
2022-08-12T06:18:16.645Z,45.76
2022-08-12T06:19:17.001Z,45.76
2022-08-12T06:20:27.098Z,45.66
2022-08-12T06:21:18.437Z,45.64
2022-08-12T06:22:17.672Z,45.34
2022-08-12T06:23:18.039Z,45.04
2022-08-12T06:24:18.267Z,45.14
2022-08-12T06:25:22.093Z,45.14
2022-08-12T06:26:18.756Z,45.34
2022-08-12T06:27:19.296Z,45.24
2022-08-12T06:28:19.356Z,45.34
2022-08-12T06:30:07.378Z,44.94
2022-08-12T06:30:33.514Z,44.53
2022-08-12T06:31:28.473Z,44.32
2022-08-12T06:32:21.562Z,44.32
2022-08-12T06:33:22.968Z,44.23
2022-08-12T06:35:25.390Z,43.71
2022-08-12T06:35:26.916Z,44.10
2022-08-12T06:36:22.778Z,43.11
2022-08-12T06:37:22.012Z,43.21
2022-08-12T06:38:22.350Z,43.11
2022-08-12T06:39:22.608Z,43.41
2022-08-12T06:40:22.823Z,43.49
2022-08-12T06:41:24.043Z,43.19
2022-08-12T06:42:32.921Z,43.19
2022-08-12T06:43:24.622Z,42.69
2022-08-12T06:44:24.331Z,42.57
2022-08-12T06:45:24.137Z,41.67
2022-08-12T06:46:25.373Z,41.77
2022-08-12T06:47:24.775Z,41.97
2022-08-12T06:48:25.039Z,41.58
2022-08-12T06:49:25.328Z,41.58
2022-08-12T06:50:25.611Z,41.58
2022-08-12T06:51:25.792Z,41.67
2022-08-12T06:52:26.025Z,41.77
2022-08-12T06:53:26.344Z,41.77
2022-08-12T06:54:30.835Z,41.47
2022-08-12T06:55:27.013Z,41.38
2022-08-12T06:56:45.990Z,41.38
2022-08-12T06:58:05.630Z,41.46
2022-08-12T06:58:28.895Z,41.46
2022-08-12T06:59:28.152Z,41.36
2022-08-12T07:00:32.819Z,41.25
2022-08-12T07:01:28.704Z,41.55
2022-08-12T07:02:30.693Z,41.46
2022-08-12T07:03:29.196Z,41.46
2022-08-12T07:04:38.281Z,41.44
2022-08-12T07:05:30.718Z,41.16
2022-08-12T07:06:29.995Z,41.16
2022-08-12T07:07:30.235Z,41.14
2022-08-12T07:08:30.511Z,41.14
2022-08-12T07:10:00.158Z,41.04
2022-08-12T07:10:32.030Z,41.14
2022-08-12T07:11:31.243Z,40.94
2022-08-12T07:12:31.701Z,40.82
2022-08-12T07:13:31.852Z,40.92
2022-08-12T07:14:32.100Z,40.92
2022-08-12T07:15:32.348Z,40.82
2022-08-12T07:16:32.638Z,40.52
2022-08-12T07:17:32.805Z,40.62
2022-08-12T07:18:33.152Z,40.62
2022-08-12T07:19:45.219Z,40.70
2022-08-12T07:20:51.651Z,40.60
2022-08-12T07:22:00.103Z,40.60
2022-08-12T07:22:35.490Z,40.50
2022-08-12T07:23:34.607Z,40.50
2022-08-12T07:24:34.933Z,40.50
2022-08-12T07:25:40.440Z,40.11
2022-08-12T07:26:36.382Z,40.01
2022-08-12T07:27:35.606Z,40.20
2022-08-12T07:28:36.008Z,39.90
2022-08-12T07:29:58.342Z,39.81
2022-08-12T07:30:37.467Z,40.01
2022-08-12T07:31:36.718Z,40.01
2022-08-12T07:32:37.032Z,39.90
2022-08-12T07:33:37.267Z,39.81
2022-08-12T07:34:37.557Z,39.81
2022-08-12T07:35:37.816Z,39.79
2022-08-12T07:36:38.072Z,39.89
2022-08-12T07:37:38.293Z,39.69
2022-08-12T07:38:38.692Z,39.59
2022-08-12T07:39:51.222Z,39.37
2022-08-12T07:40:40.232Z,39.28
2022-08-12T07:41:39.372Z,38.70
2022-08-12T07:42:39.846Z,39.09
2022-08-12T07:43:39.921Z,38.90
2022-08-12T07:44:40.270Z,39.00
2022-08-12T07:45:40.501Z,39.09
2022-08-12T07:46:40.872Z,39.00
2022-08-12T07:47:41.113Z,38.68
2022-08-12T07:48:41.407Z,38.58
2022-08-12T07:50:05.873Z,38.78
2022-08-12T07:50:42.957Z,38.26
2022-08-12T07:51:42.208Z,38.36
2022-08-12T07:52:42.934Z,38.56
2022-08-12T07:53:48.615Z,38.36
2022-08-12T07:54:43.985Z,38.17
2022-08-12T07:55:43.226Z,38.15
2022-08-12T07:56:43.580Z,37.95
2022-08-12T07:57:43.842Z,37.55
2022-08-12T07:58:47.037Z,37.85
2022-08-12T07:59:44.229Z,37.75
2022-08-12T08:00:44.499Z,37.63
2022-08-12T08:01:44.862Z,37.63
2022-08-12T08:02:45.065Z,37.34
2022-08-12T08:03:47.661Z,37.22
2022-08-12T08:04:45.617Z,36.82
2022-08-12T08:05:45.834Z,36.92
2022-08-12T08:06:46.224Z,36.82
2022-08-12T08:07:46.423Z,37.12
2022-08-12T08:08:46.670Z,37.02
2022-08-12T08:09:46.925Z,36.92
2022-08-12T08:10:47.171Z,36.82
2022-08-12T08:11:47.457Z,36.82
2022-08-12T08:12:47.732Z,36.61
2022-08-12T08:13:47.971Z,36.21
2022-08-12T08:14:49.774Z,35.99
2022-08-12T08:16:04.303Z,35.99
2022-08-12T08:16:49.902Z,35.88
2022-08-12T08:17:49.137Z,35.47
2022-08-12T08:18:49.472Z,34.95
2022-08-12T08:20:02.615Z,34.86
2022-08-12T08:20:51.131Z,34.55
2022-08-12T08:21:50.453Z,34.05
2022-08-12T08:22:50.678Z,34.03
2022-08-12T08:23:56.135Z,33.84
2022-08-12T08:24:52.168Z,33.33
2022-08-12T08:25:51.410Z,33.11
2022-08-12T08:26:51.759Z,32.90
2022-08-12T08:27:51.955Z,32.60
2022-08-12T08:28:52.179Z,32.20
2022-08-12T08:29:52.558Z,32.29
2022-08-12T08:30:52.815Z,32.08
2022-08-12T08:31:53.033Z,31.67
2022-08-12T08:32:53.288Z,31.46
2022-08-12T08:34:09.460Z,30.76
2022-08-12T08:34:55.012Z,30.35
2022-08-12T08:35:54.464Z,30.33
2022-08-12T08:36:54.403Z,29.52
2022-08-12T08:37:54.707Z,29.00
2022-08-12T08:38:58.211Z,28.89
2022-08-12T08:39:55.358Z,28.39
2022-08-12T08:40:55.675Z,27.78
2022-08-12T08:42:14.186Z,27.38
2022-08-12T08:42:57.085Z,27.47
2022-08-12T08:43:56.472Z,26.77
2022-08-12T08:44:58.062Z,26.98
2022-08-12T08:45:57.191Z,26.97
2022-08-12T08:46:57.481Z,26.66
2022-08-12T08:48:00.294Z,26.45
2022-08-12T08:48:59.626Z,26.53
2022-08-12T08:49:58.193Z,26.12
2022-08-12T08:51:04.501Z,25.71
2022-08-12T08:51:59.879Z,25.62
2022-08-12T08:52:59.287Z,25.84
2022-08-12T08:53:59.522Z,26.34
2022-08-12T08:54:59.893Z,26.32
2022-08-12T08:56:07.128Z,26.13
2022-08-12T08:57:01.389Z,26.02
2022-08-12T08:58:00.663Z,25.81
2022-08-12T08:59:00.948Z,25.41
2022-08-12T09:00:01.191Z,25.43
2022-08-12T09:01:01.428Z,26.04
2022-08-12T09:02:01.872Z,25.84
2022-08-12T09:03:02.045Z,25.32
2022-08-12T09:05:13.567Z,25.31
2022-08-12T09:05:13.954Z,25.10
2022-08-12T09:06:03.788Z,25.32
2022-08-12T09:07:17.725Z,25.21
2022-08-12T09:08:14.221Z,25.10
2022-08-12T09:09:12.802Z,24.69
2022-08-12T09:10:05.014Z,24.50
2022-08-12T09:11:04.221Z,24.72
2022-08-12T09:13:06.311Z,25.34
2022-08-12T09:14:12.464Z,25.03
2022-08-12T09:15:16.565Z,24.41
2022-08-12T09:16:06.711Z,24.10
2022-08-12T09:17:06.020Z,23.97
2022-08-12T09:19:07.639Z,23.10
2022-08-12T09:20:07.813Z,23.11
2022-08-12T09:21:07.159Z,23.11
2022-08-12T09:22:07.415Z,23.42
2022-08-12T09:23:56.732Z,23.11
2022-08-12T09:24:10.448Z,22.81
2022-08-12T09:25:08.173Z,23.10
2022-08-12T09:26:08.622Z,23.42
2022-08-12T09:27:12.244Z,23.52
2022-08-12T09:28:18.362Z,24.66
2022-08-12T09:29:12.354Z,25.16
2022-08-12T09:30:14.436Z,25.05
2022-08-12T09:32:06.658Z,24.96
2022-08-12T09:32:31.446Z,25.05
2022-08-12T09:33:18.668Z,24.96
2022-08-12T09:34:25.344Z,24.96
2022-08-12T09:35:21.881Z,25.16
2022-08-12T09:36:12.275Z,24.85
2022-08-12T09:37:19.312Z,24.33
2022-08-12T09:38:27.502Z,23.93
2022-08-12T09:40:01.670Z,23.93
2022-08-12T09:40:57.888Z,23.32
2022-08-12T09:42:34.162Z,23.83
2022-08-12T09:42:39.225Z,24.04
2022-08-12T09:43:17.751Z,23.93
2022-08-12T09:44:38.992Z,23.73
2022-08-12T09:45:19.500Z,23.72
2022-08-12T09:46:22.375Z,23.63
2022-08-12T09:47:15.414Z,23.31
2022-08-12T09:48:20.118Z,22.69
2022-08-12T09:49:16.627Z,22.50
2022-08-12T09:50:20.138Z,22.72
2022-08-12T09:51:22.078Z,22.82
2022-08-12T09:52:16.892Z,22.82
2022-08-12T09:53:16.345Z,23.02
2022-08-12T09:54:33.292Z,22.52
2022-08-12T09:55:57.305Z,22.30
2022-08-12T09:56:58.551Z,21.91
2022-08-12T09:58:46.900Z,21.80
2022-08-12T09:58:57.990Z,21.13
2022-08-12T10:00:16.792Z,21.33
2022-08-12T10:00:28.285Z,21.13
2022-08-12T10:01:23.168Z,21.43
2022-08-12T10:02:53.158Z,21.62
2022-08-12T10:03:31.367Z,21.62
2022-08-12T10:04:20.737Z,21.41
2022-08-12T10:05:20.454Z,21.20
2022-08-12T10:06:31.994Z,21.00
2022-08-12T10:07:25.219Z,20.99
2022-08-12T10:08:21.555Z,20.79
2022-08-12T10:09:20.836Z,20.70
2022-08-12T10:10:22.301Z,21.11
2022-08-12T10:11:21.355Z,21.23
2022-08-12T10:12:31.605Z,21.41
2022-08-12T10:13:37.292Z,21.51
2022-08-12T10:14:34.360Z,21.33
2022-08-12T10:16:02.055Z,21.54
2022-08-12T10:16:23.742Z,21.75
2022-08-12T10:17:23.128Z,22.05
2022-08-12T10:18:23.392Z,22.25
2022-08-12T10:19:23.609Z,22.44
2022-08-12T10:20:24.875Z,22.13
2022-08-12T10:21:24.206Z,21.93
2022-08-12T10:22:39.281Z,22.24
2022-08-12T10:23:39.613Z,22.85
2022-08-12T10:24:26.136Z,22.85
2022-08-12T10:26:36.556Z,22.74
2022-08-12T10:26:38.058Z,22.66
2022-08-12T10:27:26.876Z,22.72
2022-08-12T10:28:27.218Z,22.02
2022-08-12T10:30:02.969Z,21.71
2022-08-12T10:30:40.142Z,21.33
2022-08-12T10:31:28.122Z,21.53
2022-08-12T10:32:44.184Z,21.33
2022-08-12T10:33:31.064Z,21.62
2022-08-12T10:34:28.065Z,21.22
2022-08-12T10:35:28.447Z,21.11
2022-08-12T10:36:40.387Z,21.20
2022-08-12T10:38:34.061Z,21.20
2022-08-12T10:38:34.469Z,20.90
2022-08-12T10:40:01.942Z,21.20
2022-08-12T10:40:33.183Z,21.22
2022-08-12T10:41:57.775Z,21.01
2022-08-12T10:42:31.435Z,20.61
2022-08-12T10:43:30.795Z,20.59
2022-08-12T10:44:32.048Z,20.29
2022-08-12T10:45:31.281Z,20.08
2022-08-12T10:46:32.041Z,20.08
2022-08-12T10:48:07.670Z,19.98
2022-08-12T10:48:34.131Z,20.19
2022-08-12T10:50:05.737Z,20.21
2022-08-12T10:50:56.732Z,20.31
2022-08-12T10:52:02.872Z,20.42
2022-08-12T10:52:38.000Z,20.82
2022-08-12T10:53:44.422Z,21.01
2022-08-12T10:54:34.801Z,21.12
2022-08-12T10:55:35.609Z,21.02
2022-08-12T10:56:35.469Z,21.43
2022-08-12T10:58:13.053Z,21.85
2022-08-12T10:58:35.913Z,22.24
2022-08-12T11:00:29.350Z,22.03
2022-08-12T11:00:55.543Z,22.24
2022-08-12T11:04:18.871Z,22.44
2022-08-12T11:04:28.004Z,22.23
2022-08-12T11:04:32.105Z,21.72
2022-08-12T11:04:44.849Z,21.82
2022-08-12T11:07:08.462Z,21.71
2022-08-12T11:07:09.188Z,21.71
2022-08-12T11:08:36.554Z,21.71
2022-08-12T11:08:43.326Z,21.30
2022-08-12T11:09:54.412Z,21.10
2022-08-12T11:10:39.582Z,21.30
2022-08-12T11:12:34.900Z,21.10
2022-08-12T11:12:59.388Z,21.09
2022-08-12T11:13:46.904Z,21.80
2022-08-12T11:14:49.827Z,21.69
2022-08-12T11:16:18.782Z,21.20
2022-08-12T11:16:41.394Z,21.00
2022-08-12T11:17:43.542Z,20.89
2022-08-12T11:18:41.943Z,20.68
2022-08-12T11:19:41.203Z,20.59
2022-08-12T11:20:41.563Z,20.57
2022-08-12T11:21:58.054Z,20.37
2022-08-12T11:22:43.317Z,20.19
2022-08-12T11:23:43.357Z,20.48
2022-08-12T11:24:51.132Z,20.57
2022-08-12T11:25:57.450Z,20.01
2022-08-12T11:26:44.198Z,20.72
2022-08-12T11:27:43.703Z,21.23
2022-08-12T11:28:43.701Z,21.12
2022-08-12T11:30:01.684Z,21.54
2022-08-12T11:30:45.277Z,21.43
2022-08-12T11:32:01.877Z,21.33
2022-08-12T11:32:47.244Z,21.54
2022-08-12T11:34:06.623Z,21.53
2022-08-12T11:34:51.498Z,21.51
2022-08-12T11:35:46.809Z,21.33
2022-08-12T11:36:46.073Z,21.31
2022-08-12T11:37:58.411Z,21.00
2022-08-12T11:38:50.521Z,20.92
2022-08-12T11:40:03.062Z,21.22
2022-08-12T11:40:48.457Z,21.11
2022-08-12T11:41:47.446Z,20.90
2022-08-12T11:42:48.019Z,20.52
2022-08-12T11:43:50.223Z,20.72
2022-08-12T11:44:49.169Z,20.93
2022-08-12T11:45:53.113Z,21.23
2022-08-12T11:46:51.175Z,21.13
2022-08-12T11:47:49.194Z,20.82
2022-08-12T11:48:52.379Z,20.41
2022-08-12T11:49:49.806Z,20.31
2022-08-12T11:50:49.777Z,20.01
2022-08-12T11:51:57.492Z,19.73
2022-08-12T11:52:56.373Z,19.73
2022-08-12T11:53:57.611Z,19.95
2022-08-12T11:54:51.936Z,20.15
2022-08-12T11:55:51.079Z,20.45
2022-08-12T11:56:59.079Z,20.45
2022-08-12T11:58:08.143Z,20.45
2022-08-12T12:01:39.046Z,20.65
2022-08-12T12:02:00.985Z,21.47
2022-08-12T12:02:54.155Z,21.47
2022-08-12T12:03:54.772Z,21.88
2022-08-12T12:04:53.898Z,21.55
2022-08-12T12:05:54.030Z,21.56
2022-08-12T12:06:55.263Z,21.88
2022-08-12T12:08:38.546Z,22.17
2022-08-12T12:08:56.053Z,22.08
2022-08-12T12:09:55.708Z,22.17
2022-08-12T12:10:55.472Z,22.17
2022-08-12T12:11:55.776Z,22.60
2022-08-12T12:12:56.029Z,22.69
2022-08-12T12:14:07.814Z,22.80
2022-08-12T12:15:01.607Z,23.01
2022-08-12T12:15:57.968Z,23.21
2022-08-12T12:16:57.263Z,23.33
2022-08-12T12:17:57.572Z,23.73
2022-08-12T12:18:57.815Z,24.14
2022-08-12T12:19:58.062Z,24.65
2022-08-12T12:20:58.313Z,25.05
2022-08-12T12:21:58.601Z,24.65
2022-08-12T12:22:58.772Z,24.76
2022-08-12T12:24:00.768Z,25.49
2022-08-12T12:24:59.316Z,25.79
2022-08-12T12:26:07.773Z,25.98
2022-08-12T12:27:01.529Z,25.96
2022-08-12T12:28:05.803Z,25.17
2022-08-12T12:29:01.388Z,25.35
2022-08-12T12:30:18.524Z,25.06
2022-08-12T12:31:01.968Z,25.16
2022-08-12T12:32:09.084Z,25.45
2022-08-12T12:33:02.546Z,25.55
2022-08-12T12:34:01.802Z,25.05
2022-08-12T12:35:44.516Z,25.17
2022-08-12T12:36:16.477Z,25.27
2022-08-12T12:37:03.573Z,25.37
2022-08-12T12:38:04.973Z,25.27
2022-08-12T12:39:06.554Z,25.46
2022-08-12T12:40:06.068Z,25.76
2022-08-12T12:41:14.258Z,25.96
2022-08-12T12:42:43.350Z,25.87
2022-08-12T12:43:05.707Z,26.16
2022-08-12T12:44:04.789Z,26.07
2022-08-12T12:45:20.445Z,26.17
2022-08-12T12:46:06.232Z,26.17
2022-08-12T12:47:29.230Z,25.96
2022-08-12T12:48:07.898Z,25.87
2022-08-12T12:49:06.905Z,26.06
2022-08-12T12:50:07.505Z,26.06
2022-08-12T12:51:06.847Z,26.37
2022-08-12T12:52:20.956Z,26.46
2022-08-12T12:53:08.370Z,26.46
2022-08-12T12:54:09.987Z,26.56
2022-08-12T12:55:07.883Z,26.48
2022-08-12T12:56:08.128Z,26.58
2022-08-12T12:57:08.444Z,26.46
2022-08-12T12:58:08.711Z,26.37
2022-08-12T12:59:54.691Z,26.17
2022-08-12T13:00:10.228Z,26.07